SDGV weather

Conde Heliport
Nova Lima, Minas Gerais, Brazil

Public forecast

Using degrees Celsius for public forecast. Weather courtesy of forecast.io.

METAR (pilot weather report)

Closest report is Carlos Prates Airport, 5.6 nm (10.3 km) NNW. Retrieved 2019/07/22 11:00 UTC (43 minutes ago):

SBPR 221100Z 10010KT 9999 SCT040 17/13 Q1027

TAF (pilot weather forecast)

Forecast is more than 12 hours old.

Closest forecast is Pampulha - Carlos Drummond de Andrade Airport, 8.6 nm (15.9 km) N. Retrieved 2012/03/26 18:12 UTC (7 years ago):

TAF SBBH 261639Z 2618/2706 09005KT 9999 SCT030 TX28/2618Z TN20/2705Z PROB30 2619/2624 8000 TSRA BKN035 FEW045CB RMK PGG